sensor_id;sensor_type;location;lat;lon;timestamp;temperature;humidity
12370;DHT22;6249;52.128;9.986;2022-12-18T00:03:14;-3.70;99.90
12370;DHT22;6249;52.128;9.986;2022-12-18T00:06:37;-3.80;99.90
12370;DHT22;6249;52.128;9.986;2022-12-18T00:09:58;-3.90;99.90
12370;DHT22;6249;52.128;9.986;2022-12-18T00:13:18;-3.90;99.90
12370;DHT22;6249;52.128;9.986;2022-12-18T00:16:39;-3.90;99.90
12370;DHT22;6249;52.128;9.986;2022-12-18T00:20:00;-3.80;99.90
12370;DHT22;6249;52.128;9.986;2022-12-18T00:23:23;-3.80;99.90
12370;DHT22;6249;52.128;9.986;2022-12-18T00:26:44;-3.80;99.90
12370;DHT22;6249;52.128;9.986;2022-12-18T00:30:05;-3.90;99.90
12370;DHT22;6249;52.128;9.986;2022-12-18T00:33:28;-3.80;99.90
12370;DHT22;6249;52.128;9.986;2022-12-18T00:36:49;-3.80;99.90
12370;DHT22;6249;52.128;9.986;2022-12-18T00:40:10;-3.80;99.90
12370;DHT22;6249;52.128;9.986;2022-12-18T00:43:39;-3.80;99.90
12370;DHT22;6249;52.128;9.986;2022-12-18T00:46:59;-3.80;99.90
12370;DHT22;6249;52.128;9.986;2022-12-18T00:50:21;-3.60;99.90
12370;DHT22;6249;52.128;9.986;2022-12-18T00:53:42;-3.40;99.90
12370;DHT22;6249;52.128;9.986;2022-12-18T00:57:03;-3.40;99.90
12370;DHT22;6249;52.128;9.986;2022-12-18T01:00:23;-3.20;99.90
12370;DHT22;6249;52.128;9.986;2022-12-18T01:03:44;-3.40;99.90
12370;DHT22;6249;52.128;9.986;2022-12-18T01:07:09;-3.40;99.90
12370;DHT22;6249;52.128;9.986;2022-12-18T01:10:32;-3.50;99.90
12370;DHT22;6249;52.128;9.986;2022-12-18T01:13:53;-3.70;99.90
12370;DHT22;6249;52.128;9.986;2022-12-18T01:17:15;-3.80;99.90
12370;DHT22;6249;52.128;9.986;2022-12-18T01:20:35;-3.90;99.90
12370;DHT22;6249;52.128;9.986;2022-12-18T01:23:58;-4.00;99.90
12370;DHT22;6249;52.128;9.986;2022-12-18T01:27:18;-4.10;99.90
12370;DHT22;6249;52.128;9.986;2022-12-18T01:30:39;-4.10;99.90
12370;DHT22;6249;52.128;9.986;2022-12-18T01:34:04;-4.30;99.90
12370;DHT22;6249;52.128;9.986;2022-12-18T01:37:25;-4.30;99.90
12370;DHT22;6249;52.128;9.986;2022-12-18T01:40:45;-4.20;99.90
12370;DHT22;6249;52.128;9.986;2022-12-18T01:48:06;-4.30;99.90
12370;DHT22;6249;52.128;9.986;2022-12-18T01:51:29;-4.40;99.90
12370;DHT22;6249;52.128;9.986;2022-12-18T01:54:51;-4.50;99.90
12370;DHT22;6249;52.128;9.986;2022-12-18T01:58:16;-4.50;99.90
12370;DHT22;6249;52.128;9.986;2022-12-18T02:01:39;-4.50;99.90
12370;DHT22;6249;52.128;9.986;2022-12-18T02:05:00;-4.40;99.90
12370;DHT22;6249;52.128;9.986;2022-12-18T02:19:21;-4.20;99.90
12370;DHT22;6249;52.128;9.986;2022-12-18T02:23:06;-4.20;99.90
12370;DHT22;6249;52.128;9.986;2022-12-18T02:26:36;-4.10;99.90
12370;DHT22;6249;52.128;9.986;2022-12-18T02:30:03;-4.10;99.90
12370;DHT22;6249;52.128;9.986;2022-12-18T02:33:27;-4.20;99.90
12370;DHT22;6249;52.128;9.986;2022-12-18T02:36:48;-4.00;99.90
12370;DHT22;6249;52.128;9.986;2022-12-18T02:40:15;-3.90;99.90
12370;DHT22;6249;52.128;9.986;2022-12-18T02:43:37;-4.00;99.90
12370;DHT22;6249;52.128;9.986;2022-12-18T02:47:00;-4.00;99.90
12370;DHT22;6249;52.128;9.986;2022-12-18T02:50:36;-3.80;99.90
12370;DHT22;6249;52.128;9.986;2022-12-18T02:54:08;-3.70;99.90
12370;DHT22;6249;52.128;9.986;2022-12-18T02:57:38;-3.80;99.90
12370;DHT22;6249;52.128;9.986;2022-12-18T03:01:05;-3.70;99.90
12370;DHT22;6249;52.128;9.986;2022-12-18T03:04:34;-3.60;99.90
12370;DHT22;6249;52.128;9.986;2022-12-18T03:08:03;-3.70;99.90
12370;DHT22;6249;52.128;9.986;2022-12-18T03:11:28;-3.60;99.90
12370;DHT22;6249;52.128;9.986;2022-12-18T03:15:22;-3.60;99.90
12370;DHT22;6249;52.128;9.986;2022-12-18T03:18:51;-3.90;99.90
12370;DHT22;6249;52.128;9.986;2022-12-18T03:22:15;-4.00;99.90
12370;DHT22;6249;52.128;9.986;2022-12-18T03:25:39;-4.30;99.90
12370;DHT22;6249;52.128;9.986;2022-12-18T03:29:09;-4.40;99.90
12370;DHT22;6249;52.128;9.986;2022-12-18T03:32:47;-4.40;99.90
12370;DHT22;6249;52.128;9.986;2022-12-18T03:36:11;-4.50;99.90
12370;DHT22;6249;52.128;9.986;2022-12-18T03:39:35;-4.40;99.90
12370;DHT22;6249;52.128;9.986;2022-12-18T03:43:45;-4.20;99.90
12370;DHT22;6249;52.128;9.986;2022-12-18T03:51:02;-4.30;99.90
12370;DHT22;6249;52.128;9.986;2022-12-18T03:54:26;-4.40;99.90
12370;DHT22;6249;52.128;9.986;2022-12-18T03:57:48;-4.20;99.90
12370;DHT22;6249;52.128;9.986;2022-12-18T04:01:13;-4.30;99.90
12370;DHT22;6249;52.128;9.986;2022-12-18T04:04:38;-4.30;99.90
12370;DHT22;6249;52.128;9.986;2022-12-18T04:08:03;-4.00;99.90
12370;DHT22;6249;52.128;9.986;2022-12-18T04:11:27;-4.00;99.90
12370;DHT22;6249;52.128;9.986;2022-12-18T04:14:50;-4.00;99.90
12370;DHT22;6249;52.128;9.986;2022-12-18T04:18:10;-4.20;99.90
12370;DHT22;6249;52.128;9.986;2022-12-18T04:21:33;-4.10;99.90
12370;DHT22;6249;52.128;9.986;2022-12-18T04:24:54;-3.90;99.90
12370;DHT22;6249;52.128;9.986;2022-12-18T04:28:14;-3.90;99.90
12370;DHT22;6249;52.128;9.986;2022-12-18T04:31:37;-3.90;99.90
12370;DHT22;6249;52.128;9.986;2022-12-18T04:35:00;-4.00;99.90
12370;DHT22;6249;52.128;9.986;2022-12-18T04:38:21;-4.10;99.90
12370;DHT22;6249;52.128;9.986;2022-12-18T04:41:45;-4.00;99.90
12370;DHT22;6249;52.128;9.986;2022-12-18T04:45:07;-3.90;99.90
12370;DHT22;6249;52.128;9.986;2022-12-18T04:48:30;-4.00;99.90
12370;DHT22;6249;52.128;9.986;2022-12-18T04:51:51;-3.90;99.90
12370;DHT22;6249;52.128;9.986;2022-12-18T04:55:12;-3.70;99.90
12370;DHT22;6249;52.128;9.986;2022-12-18T04:58:32;-3.60;99.90
12370;DHT22;6249;52.128;9.986;2022-12-18T05:01:53;-3.60;99.90
12370;DHT22;6249;52.128;9.986;2022-12-18T05:05:16;-3.60;99.90
12370;DHT22;6249;52.128;9.986;2022-12-18T05:08:39;-3.50;99.90
12370;DHT22;6249;52.128;9.986;2022-12-18T05:11:59;-3.60;99.90
12370;DHT22;6249;52.128;9.986;2022-12-18T05:15:25;-3.60;99.90
12370;DHT22;6249;52.128;9.986;2022-12-18T05:18:46;-3.70;99.90
12370;DHT22;6249;52.128;9.986;2022-12-18T05:22:10;-3.60;99.90
12370;DHT22;6249;52.128;9.986;2022-12-18T05:25:31;-3.70;99.90
12370;DHT22;6249;52.128;9.986;2022-12-18T05:28:52;-3.70;99.90
12370;DHT22;6249;52.128;9.986;2022-12-18T05:32:12;-3.60;99.90
12370;DHT22;6249;52.128;9.986;2022-12-18T05:35:33;-3.70;99.90
12370;DHT22;6249;52.128;9.986;2022-12-18T05:38:54;-3.80;99.90
12370;DHT22;6249;52.128;9.986;2022-12-18T05:42:14;-3.80;99.90
12370;DHT22;6249;52.128;9.986;2022-12-18T05:45:41;-3.90;99.90
12370;DHT22;6249;52.128;9.986;2022-12-18T05:49:01;-3.90;99.90
12370;DHT22;6249;52.128;9.986;2022-12-18T05:52:24;-4.10;99.90
12370;DHT22;6249;52.128;9.986;2022-12-18T05:55:45;-4.10;99.90
12370;DHT22;6249;52.128;9.986;2022-12-18T05:59:06;-4.20;99.90
12370;DHT22;6249;52.128;9.986;2022-12-18T06:02:27;-4.20;99.90
12370;DHT22;6249;52.128;9.986;2022-12-18T06:05:47;-4.30;99.90
12370;DHT22;6249;52.128;9.986;2022-12-18T06:09:12;-4.20;99.90
12370;DHT22;6249;52.128;9.986;2022-12-18T06:12:33;-4.30;99.90
12370;DHT22;6249;52.128;9.986;2022-12-18T06:15:54;-4.20;99.90
12370;DHT22;6249;52.128;9.986;2022-12-18T06:19:16;-4.10;99.90
12370;DHT22;6249;52.128;9.986;2022-12-18T06:22:39;-4.00;99.90
12370;DHT22;6249;52.128;9.986;2022-12-18T06:26:08;-4.10;99.90
12370;DHT22;6249;52.128;9.986;2022-12-18T06:29:29;-4.20;99.90
12370;DHT22;6249;52.128;9.986;2022-12-18T06:32:52;-4.20;99.90
12370;DHT22;6249;52.128;9.986;2022-12-18T06:36:13;-4.30;99.90
12370;DHT22;6249;52.128;9.986;2022-12-18T06:39:34;-4.30;99.90
12370;DHT22;6249;52.128;9.986;2022-12-18T06:42:55;-4.20;99.90
12370;DHT22;6249;52.128;9.986;2022-12-18T06:46:16;-4.10;99.90
12370;DHT22;6249;52.128;9.986;2022-12-18T06:49:41;-4.10;99.90
12370;DHT22;6249;52.128;9.986;2022-12-18T06:53:04;-4.00;99.90
12370;DHT22;6249;52.128;9.986;2022-12-18T06:56:26;-3.90;99.90
12370;DHT22;6249;52.128;9.986;2022-12-18T06:59:48;-3.90;99.90
12370;DHT22;6249;52.128;9.986;2022-12-18T07:03:11;-3.90;99.90
12370;DHT22;6249;52.128;9.986;2022-12-18T07:06:33;-3.70;99.90
12370;DHT22;6249;52.128;9.986;2022-12-18T07:09:59;-3.70;99.90
12370;DHT22;6249;52.128;9.986;2022-12-18T07:13:19;-3.90;99.90
12370;DHT22;6249;52.128;9.986;2022-12-18T07:16:40;-3.90;99.90
12370;DHT22;6249;52.128;9.986;2022-12-18T07:20:01;-4.00;99.90
12370;DHT22;6249;52.128;9.986;2022-12-18T07:23:21;-3.90;99.90
12370;DHT22;6249;52.128;9.986;2022-12-18T07:26:48;-3.80;99.90
12370;DHT22;6249;52.128;9.986;2022-12-18T07:30:09;-3.80;99.90
12370;DHT22;6249;52.128;9.986;2022-12-18T07:33:33;-3.80;99.90
12370;DHT22;6249;52.128;9.986;2022-12-18T07:36:53;-3.80;99.90
12370;DHT22;6249;52.128;9.986;2022-12-18T07:40:19;-3.70;99.90
12370;DHT22;6249;52.128;9.986;2022-12-18T07:43:40;-3.70;99.90
12370;DHT22;6249;52.128;9.986;2022-12-18T07:47:03;-3.70;99.90
12370;DHT22;6249;52.128;9.986;2022-12-18T07:50:24;-3.90;99.90
12370;DHT22;6249;52.128;9.986;2022-12-18T07:53:45;-4.00;99.90
12370;DHT22;6249;52.128;9.986;2022-12-18T07:57:06;-3.90;99.90
12370;DHT22;6249;52.128;9.986;2022-12-18T08:00:27;-3.90;99.90
12370;DHT22;6249;52.128;9.986;2022-12-18T08:03:50;-3.80;99.90
12370;DHT22;6249;52.128;9.986;2022-12-18T08:07:10;-3.70;99.90
12370;DHT22;6249;52.128;9.986;2022-12-18T08:10:31;-3.60;99.90
12370;DHT22;6249;52.128;9.986;2022-12-18T08:13:52;-3.50;99.90
12370;DHT22;6249;52.128;9.986;2022-12-18T08:17:15;-3.50;99.90
12370;DHT22;6249;52.128;9.986;2022-12-18T08:20:38;-3.40;99.90
12370;DHT22;6249;52.128;9.986;2022-12-18T08:24:01;-3.20;99.90
12370;DHT22;6249;52.128;9.986;2022-12-18T08:27:24;-3.10;99.90
12370;DHT22;6249;52.128;9.986;2022-12-18T08:30:47;-3.20;99.90
12370;DHT22;6249;52.128;9.986;2022-12-18T08:34:11;-3.20;99.90
12370;DHT22;6249;52.128;9.986;2022-12-18T08:37:32;-3.10;99.90
12370;DHT22;6249;52.128;9.986;2022-12-18T08:44:20;-2.60;99.90
12370;DHT22;6249;52.128;9.986;2022-12-18T08:47:59;-2.60;99.90
12370;DHT22;6249;52.128;9.986;2022-12-18T08:51:20;-2.20;99.90
12370;DHT22;6249;52.128;9.986;2022-12-18T08:54:41;-2.00;99.90
12370;DHT22;6249;52.128;9.986;2022-12-18T08:58:02;-1.70;99.90
12370;DHT22;6249;52.128;9.986;2022-12-18T09:01:23;-1.50;99.90
12370;DHT22;6249;52.128;9.986;2022-12-18T09:04:46;-1.10;99.90
12370;DHT22;6249;52.128;9.986;2022-12-18T09:08:07;-0.90;99.90
12370;DHT22;6249;52.128;9.986;2022-12-18T09:11:32;-0.70;99.90
12370;DHT22;6249;52.128;9.986;2022-12-18T09:14:52;-0.50;99.90
12370;DHT22;6249;52.128;9.986;2022-12-18T09:18:17;-0.30;99.90
12370;DHT22;6249;52.128;9.986;2022-12-18T09:21:38;-0.10;99.90
12370;DHT22;6249;52.128;9.986;2022-12-18T09:25:01;-0.10;99.90
12370;DHT22;6249;52.128;9.986;2022-12-18T09:28:22;0.20;99.90
12370;DHT22;6249;52.128;9.986;2022-12-18T09:31:45;0.50;99.90
12370;DHT22;6249;52.128;9.986;2022-12-18T09:35:05;0.70;99.90
12370;DHT22;6249;52.128;9.986;2022-12-18T09:38:28;0.70;99.90
12370;DHT22;6249;52.128;9.986;2022-12-18T09:41:53;1.00;99.90
12370;DHT22;6249;52.128;9.986;2022-12-18T09:45:17;1.10;99.20
12370;DHT22;6249;52.128;9.986;2022-12-18T09:48:41;1.10;99.00
12370;DHT22;6249;52.128;9.986;2022-12-18T09:52:26;0.90;99.20
12370;DHT22;6249;52.128;9.986;2022-12-18T09:55:50;0.80;99.70
12370;DHT22;6249;52.128;9.986;2022-12-18T09:59:25;0.90;99.50
12370;DHT22;6249;52.128;9.986;2022-12-18T10:02:51;1.20;98.80
12370;DHT22;6249;52.128;9.986;2022-12-18T10:06:18;1.40;98.10
12370;DHT22;6249;52.128;9.986;2022-12-18T10:10:10;1.80;97.40
12370;DHT22;6249;52.128;9.986;2022-12-18T10:13:33;2.30;96.10
12370;DHT22;6249;52.128;9.986;2022-12-18T10:20:40;3.00;93.70
12370;DHT22;6249;52.128;9.986;2022-12-18T10:28:07;3.10;94.10
12370;DHT22;6249;52.128;9.986;2022-12-18T10:31:32;3.20;93.40
12370;DHT22;6249;52.128;9.986;2022-12-18T10:34:56;3.20;93.00
12370;DHT22;6249;52.128;9.986;2022-12-18T10:41:39;2.90;93.70
12370;DHT22;6249;52.128;9.986;2022-12-18T10:45:29;2.90;93.70
12370;DHT22;6249;52.128;9.986;2022-12-18T10:48:53;3.30;93.40
12370;DHT22;6249;52.128;9.986;2022-12-18T10:55:44;4.10;91.50
12370;DHT22;6249;52.128;9.986;2022-12-18T10:59:08;4.30;91.50
12370;DHT22;6249;52.128;9.986;2022-12-18T11:02:38;4.60;90.40
12370;DHT22;6249;52.128;9.986;2022-12-18T11:06:04;4.70;90.80
12370;DHT22;6249;52.128;9.986;2022-12-18T11:09:28;4.80;89.10
12370;DHT22;6249;52.128;9.986;2022-12-18T11:12:51;4.60;88.90
12370;DHT22;6249;52.128;9.986;2022-12-18T11:16:19;4.50;90.30
12370;DHT22;6249;52.128;9.986;2022-12-18T11:19:44;4.50;91.20
12370;DHT22;6249;52.128;9.986;2022-12-18T11:23:11;5.30;90.00
12370;DHT22;6249;52.128;9.986;2022-12-18T11:26:34;5.70;87.70
12370;DHT22;6249;52.128;9.986;2022-12-18T11:30:31;5.50;88.60
12370;DHT22;6249;52.128;9.986;2022-12-18T11:34:13;4.90;88.30
12370;DHT22;6249;52.128;9.986;2022-12-18T11:37:36;5.00;90.00
12370;DHT22;6249;52.128;9.986;2022-12-18T11:44:41;4.60;90.10
12370;DHT22;6249;52.128;9.986;2022-12-18T11:48:25;4.30;90.60
12370;DHT22;6249;52.128;9.986;2022-12-18T11:55:35;5.80;88.30
12370;DHT22;6249;52.128;9.986;2022-12-18T11:59:08;6.70;86.80
12370;DHT22;6249;52.128;9.986;2022-12-18T12:11:15;7.70;79.60
12370;DHT22;6249;52.128;9.986;2022-12-18T12:22:32;7.00;81.40
12370;DHT22;6249;52.128;9.986;2022-12-18T12:26:06;6.50;83.90
12370;DHT22;6249;52.128;9.986;2022-12-18T12:33:57;6.20;84.80
12370;DHT22;6249;52.128;9.986;2022-12-18T12:44:55;5.40;90.50
12370;DHT22;6249;52.128;9.986;2022-12-18T12:48:31;5.40;90.40
12370;DHT22;6249;52.128;9.986;2022-12-18T12:55:26;5.00;90.30
12370;DHT22;6249;52.128;9.986;2022-12-18T12:59:21;4.70;90.20
12370;DHT22;6249;52.128;9.986;2022-12-18T13:06:54;4.20;91.10
12370;DHT22;6249;52.128;9.986;2022-12-18T13:13:54;3.60;92.80
12370;DHT22;6249;52.128;9.986;2022-12-18T13:20:46;3.20;93.70
12370;DHT22;6249;52.128;9.986;2022-12-18T13:24:34;3.20;93.50
12370;DHT22;6249;52.128;9.986;2022-12-18T13:28:15;3.20;93.90
12370;DHT22;6249;52.128;9.986;2022-12-18T13:38:38;2.90;94.40
12370;DHT22;6249;52.128;9.986;2022-12-18T13:45:42;2.60;94.80
12370;DHT22;6249;52.128;9.986;2022-12-18T13:49:24;2.50;95.70
12370;DHT22;6249;52.128;9.986;2022-12-18T13:52:45;2.30;95.70
12370;DHT22;6249;52.128;9.986;2022-12-18T13:56:15;2.30;96.30
12370;DHT22;6249;52.128;9.986;2022-12-18T13:59:41;2.20;96.10
12370;DHT22;6249;52.128;9.986;2022-12-18T14:03:23;2.00;96.60
12370;DHT22;6249;52.128;9.986;2022-12-18T14:06:46;1.90;97.00
12370;DHT22;6249;52.128;9.986;2022-12-18T14:10:13;2.00;96.90
12370;DHT22;6249;52.128;9.986;2022-12-18T14:13:44;1.80;97.40
12370;DHT22;6249;52.128;9.986;2022-12-18T14:17:09;1.80;97.70
12370;DHT22;6249;52.128;9.986;2022-12-18T14:20:37;1.60;97.90
12370;DHT22;6249;52.128;9.986;2022-12-18T14:27:29;1.50;98.50
12370;DHT22;6249;52.128;9.986;2022-12-18T14:30:50;1.50;98.60
12370;DHT22;6249;52.128;9.986;2022-12-18T14:34:16;1.50;98.60
12370;DHT22;6249;52.128;9.986;2022-12-18T14:37:41;1.40;98.60
12370;DHT22;6249;52.128;9.986;2022-12-18T14:41:04;1.30;98.50
12370;DHT22;6249;52.128;9.986;2022-12-18T14:44:25;1.30;98.30
12370;DHT22;6249;52.128;9.986;2022-12-18T14:47:46;1.40;97.80
12370;DHT22;6249;52.128;9.986;2022-12-18T14:51:16;1.30;97.90
12370;DHT22;6249;52.128;9.986;2022-12-18T14:54:39;1.10;98.10
12370;DHT22;6249;52.128;9.986;2022-12-18T14:58:00;0.90;98.70
12370;DHT22;6249;52.128;9.986;2022-12-18T15:01:29;0.90;99.00
12370;DHT22;6249;52.128;9.986;2022-12-18T15:05:26;0.90;99.20
12370;DHT22;6249;52.128;9.986;2022-12-18T15:08:47;0.70;99.50
12370;DHT22;6249;52.128;9.986;2022-12-18T15:12:34;0.70;99.90
12370;DHT22;6249;52.128;9.986;2022-12-18T15:15:59;0.70;99.70
12370;DHT22;6249;52.128;9.986;2022-12-18T15:22:53;0.70;99.90
12370;DHT22;6249;52.128;9.986;2022-12-18T15:26:21;0.70;99.70
12370;DHT22;6249;52.128;9.986;2022-12-18T15:29:42;0.70;99.60
12370;DHT22;6249;52.128;9.986;2022-12-18T15:33:25;0.60;99.90
12370;DHT22;6249;52.128;9.986;2022-12-18T15:36:53;0.50;99.90
12370;DHT22;6249;52.128;9.986;2022-12-18T15:40:16;0.50;99.90
12370;DHT22;6249;52.128;9.986;2022-12-18T15:43:37;0.60;99.90
12370;DHT22;6249;52.128;9.986;2022-12-18T15:46:58;0.50;99.90
12370;DHT22;6249;52.128;9.986;2022-12-18T15:50:21;0.50;99.90
12370;DHT22;6249;52.128;9.986;2022-12-18T15:53:42;0.40;99.90
12370;DHT22;6249;52.128;9.986;2022-12-18T15:57:09;0.40;99.90
12370;DHT22;6249;52.128;9.986;2022-12-18T16:00:44;0.30;99.90
12370;DHT22;6249;52.128;9.986;2022-12-18T16:04:05;0.20;99.90
12370;DHT22;6249;52.128;9.986;2022-12-18T16:07:28;0.10;99.90
12370;DHT22;6249;52.128;9.986;2022-12-18T16:10:49;0.10;99.90
12370;DHT22;6249;52.128;9.986;2022-12-18T16:17:46;-0.20;99.90
12370;DHT22;6249;52.128;9.986;2022-12-18T16:21:10;-0.10;99.90
12370;DHT22;6249;52.128;9.986;2022-12-18T16:24:33;0.00;99.90
12370;DHT22;6249;52.128;9.986;2022-12-18T16:27:54;-0.10;99.90
12370;DHT22;6249;52.128;9.986;2022-12-18T16:31:22;-0.20;99.90
12370;DHT22;6249;52.128;9.986;2022-12-18T16:34:43;-0.20;99.90
12370;DHT22;6249;52.128;9.986;2022-12-18T16:38:06;-0.20;99.90
12370;DHT22;6249;52.128;9.986;2022-12-18T16:41:27;-0.10;99.90
12370;DHT22;6249;52.128;9.986;2022-12-18T16:44:53;-0.10;99.90
12370;DHT22;6249;52.128;9.986;2022-12-18T16:48:14;0.00;99.90
12370;DHT22;6249;52.128;9.986;2022-12-18T16:51:35;0.10;99.80
12370;DHT22;6249;52.128;9.986;2022-12-18T16:54:55;0.30;98.50
12370;DHT22;6249;52.128;9.986;2022-12-18T16:58:19;0.50;97.40
12370;DHT22;6249;52.128;9.986;2022-12-18T17:01:39;0.60;97.40
12370;DHT22;6249;52.128;9.986;2022-12-18T17:05:02;0.60;97.30
12370;DHT22;6249;52.128;9.986;2022-12-18T17:08:23;0.60;97.30
12370;DHT22;6249;52.128;9.986;2022-12-18T17:11:48;0.60;97.30
12370;DHT22;6249;52.128;9.986;2022-12-18T17:15:11;0.60;97.30
12370;DHT22;6249;52.128;9.986;2022-12-18T17:18:32;0.60;97.20
12370;DHT22;6249;52.128;9.986;2022-12-18T17:21:53;0.70;96.70
12370;DHT22;6249;52.128;9.986;2022-12-18T17:25:17;0.70;96.40
12370;DHT22;6249;52.128;9.986;2022-12-18T17:28:39;0.90;96.10
12370;DHT22;6249;52.128;9.986;2022-12-18T17:32:02;0.80;95.90
12370;DHT22;6249;52.128;9.986;2022-12-18T17:35:25;1.00;94.90
12370;DHT22;6249;52.128;9.986;2022-12-18T17:38:55;1.00;94.70
12370;DHT22;6249;52.128;9.986;2022-12-18T17:42:18;1.00;94.50
12370;DHT22;6249;52.128;9.986;2022-12-18T17:45:40;1.20;94.20
12370;DHT22;6249;52.128;9.986;2022-12-18T17:49:01;1.40;93.70
12370;DHT22;6249;52.128;9.986;2022-12-18T17:52:22;1.20;93.60
12370;DHT22;6249;52.128;9.986;2022-12-18T17:55:43;1.20;94.00
12370;DHT22;6249;52.128;9.986;2022-12-18T17:59:06;1.30;93.80
12370;DHT22;6249;52.128;9.986;2022-12-18T18:02:26;1.30;93.60
12370;DHT22;6249;52.128;9.986;2022-12-18T18:05:54;1.30;93.80
12370;DHT22;6249;52.128;9.986;2022-12-18T18:09:17;1.20;93.90
12370;DHT22;6249;52.128;9.986;2022-12-18T18:12:39;1.20;93.90
12370;DHT22;6249;52.128;9.986;2022-12-18T18:16:18;1.20;93.90
12370;DHT22;6249;52.128;9.986;2022-12-18T18:19:41;1.10;94.00
12370;DHT22;6249;52.128;9.986;2022-12-18T18:23:02;1.10;94.50
12370;DHT22;6249;52.128;9.986;2022-12-18T18:26:22;1.20;94.60
12370;DHT22;6249;52.128;9.986;2022-12-18T18:29:43;1.10;94.70
12370;DHT22;6249;52.128;9.986;2022-12-18T18:33:03;1.00;95.30
12370;DHT22;6249;52.128;9.986;2022-12-18T18:36:26;1.00;95.20
12370;DHT22;6249;52.128;9.986;2022-12-18T18:39:47;1.20;94.70
12370;DHT22;6249;52.128;9.986;2022-12-18T18:43:07;1.20;94.70
12370;DHT22;6249;52.128;9.986;2022-12-18T18:46:29;1.20;94.80
12370;DHT22;6249;52.128;9.986;2022-12-18T18:49:49;1.20;94.20
12370;DHT22;6249;52.128;9.986;2022-12-18T18:53:13;1.20;94.10
12370;DHT22;6249;52.128;9.986;2022-12-18T18:56:33;1.40;94.00
12370;DHT22;6249;52.128;9.986;2022-12-18T18:59:54;1.40;93.60
12370;DHT22;6249;52.128;9.986;2022-12-18T19:03:17;1.40;94.10
12370;DHT22;6249;52.128;9.986;2022-12-18T19:06:40;1.50;93.50
12370;DHT22;6249;52.128;9.986;2022-12-18T19:10:04;1.40;93.80
12370;DHT22;6249;52.128;9.986;2022-12-18T19:13:27;1.40;94.30
12370;DHT22;6249;52.128;9.986;2022-12-18T19:16:48;1.40;94.00
12370;DHT22;6249;52.128;9.986;2022-12-18T19:20:09;1.50;94.10
12370;DHT22;6249;52.128;9.986;2022-12-18T19:23:35;1.60;93.30
12370;DHT22;6249;52.128;9.986;2022-12-18T19:26:55;1.30;94.30
12370;DHT22;6249;52.128;9.986;2022-12-18T19:30:16;1.40;93.60
12370;DHT22;6249;52.128;9.986;2022-12-18T19:33:39;1.30;93.70
12370;DHT22;6249;52.128;9.986;2022-12-18T19:37:01;1.30;94.20
12370;DHT22;6249;52.128;9.986;2022-12-18T19:40:21;1.50;93.60
12370;DHT22;6249;52.128;9.986;2022-12-18T19:43:42;1.50;93.30
12370;DHT22;6249;52.128;9.986;2022-12-18T19:47:03;1.50;93.10
12370;DHT22;6249;52.128;9.986;2022-12-18T19:50:26;1.40;93.60
12370;DHT22;6249;52.128;9.986;2022-12-18T19:53:47;1.80;93.10
12370;DHT22;6249;52.128;9.986;2022-12-18T19:57:08;1.60;93.40
12370;DHT22;6249;52.128;9.986;2022-12-18T20:00:33;1.40;93.90
12370;DHT22;6249;52.128;9.986;2022-12-18T20:03:56;1.30;94.40
12370;DHT22;6249;52.128;9.986;2022-12-18T20:07:18;1.20;94.80
12370;DHT22;6249;52.128;9.986;2022-12-18T20:10:41;1.30;94.80
12370;DHT22;6249;52.128;9.986;2022-12-18T20:14:09;1.20;95.10
12370;DHT22;6249;52.128;9.986;2022-12-18T20:17:30;1.30;95.30
12370;DHT22;6249;52.128;9.986;2022-12-18T20:20:50;1.20;96.10
12370;DHT22;6249;52.128;9.986;2022-12-18T20:24:11;1.40;95.40
12370;DHT22;6249;52.128;9.986;2022-12-18T20:27:34;1.40;95.30
12370;DHT22;6249;52.128;9.986;2022-12-18T20:30:59;1.30;95.20
12370;DHT22;6249;52.128;9.986;2022-12-18T20:34:20;1.30;95.50
12370;DHT22;6249;52.128;9.986;2022-12-18T20:37:45;1.30;95.70
12370;DHT22;6249;52.128;9.986;2022-12-18T20:41:13;1.20;96.20
12370;DHT22;6249;52.128;9.986;2022-12-18T20:44:35;1.20;96.20
12370;DHT22;6249;52.128;9.986;2022-12-18T20:48:00;1.30;96.10
12370;DHT22;6249;52.128;9.986;2022-12-18T20:51:21;1.20;96.80
12370;DHT22;6249;52.128;9.986;2022-12-18T20:54:42;1.20;96.30
12370;DHT22;6249;52.128;9.986;2022-12-18T20:58:02;1.30;96.40
12370;DHT22;6249;52.128;9.986;2022-12-18T21:01:24;1.30;96.60
12370;DHT22;6249;52.128;9.986;2022-12-18T21:04:49;1.20;97.20
12370;DHT22;6249;52.128;9.986;2022-12-18T21:08:10;1.20;97.40
12370;DHT22;6249;52.128;9.986;2022-12-18T21:11:34;1.10;97.80
12370;DHT22;6249;52.128;9.986;2022-12-18T21:15:13;1.30;97.50
12370;DHT22;6249;52.128;9.986;2022-12-18T21:18:33;1.50;97.10
12370;DHT22;6249;52.128;9.986;2022-12-18T21:21:57;1.40;97.00
12370;DHT22;6249;52.128;9.986;2022-12-18T21:25:18;1.40;97.10
12370;DHT22;6249;52.128;9.986;2022-12-18T21:28:41;1.20;97.70
12370;DHT22;6249;52.128;9.986;2022-12-18T21:32:02;1.20;98.10
12370;DHT22;6249;52.128;9.986;2022-12-18T21:35:25;1.20;98.00
12370;DHT22;6249;52.128;9.986;2022-12-18T21:38:46;1.10;98.20
12370;DHT22;6249;52.128;9.986;2022-12-18T21:42:09;1.00;98.60
12370;DHT22;6249;52.128;9.986;2022-12-18T21:45:51;1.20;98.10
12370;DHT22;6249;52.128;9.986;2022-12-18T21:49:16;1.30;98.10
12370;DHT22;6249;52.128;9.986;2022-12-18T21:52:37;1.20;98.60
12370;DHT22;6249;52.128;9.986;2022-12-18T21:56:00;1.30;98.10
12370;DHT22;6249;52.128;9.986;2022-12-18T21:59:38;1.40;98.10
12370;DHT22;6249;52.128;9.986;2022-12-18T22:02:59;1.40;98.20
12370;DHT22;6249;52.128;9.986;2022-12-18T22:06:24;1.60;98.10
12370;DHT22;6249;52.128;9.986;2022-12-18T22:09:45;1.60;97.90
12370;DHT22;6249;52.128;9.986;2022-12-18T22:13:06;1.60;98.40
12370;DHT22;6249;52.128;9.986;2022-12-18T22:16:27;1.50;98.70
12370;DHT22;6249;52.128;9.986;2022-12-18T22:19:50;1.40;99.20
12370;DHT22;6249;52.128;9.986;2022-12-18T22:23:11;1.40;99.30
12370;DHT22;6249;52.128;9.986;2022-12-18T22:26:36;1.30;99.80
12370;DHT22;6249;52.128;9.986;2022-12-18T22:29:56;1.30;99.90
12370;DHT22;6249;52.128;9.986;2022-12-18T22:33:23;1.60;99.50
12370;DHT22;6249;52.128;9.986;2022-12-18T22:36:45;1.90;98.60
12370;DHT22;6249;52.128;9.986;2022-12-18T22:40:16;1.80;98.70
12370;DHT22;6249;52.128;9.986;2022-12-18T22:43:37;2.10;98.80
12370;DHT22;6249;52.128;9.986;2022-12-18T22:47:00;2.00;98.70
12370;DHT22;6249;52.128;9.986;2022-12-18T22:50:21;1.80;99.40
12370;DHT22;6249;52.128;9.986;2022-12-18T22:53:44;1.80;99.20
12370;DHT22;6249;52.128;9.986;2022-12-18T22:57:05;1.60;99.40
12370;DHT22;6249;52.128;9.986;2022-12-18T23:00:28;1.60;99.80
12370;DHT22;6249;52.128;9.986;2022-12-18T23:03:48;1.70;99.70
12370;DHT22;6249;52.128;9.986;2022-12-18T23:07:09;1.60;99.80
12370;DHT22;6249;52.128;9.986;2022-12-18T23:10:36;1.90;98.90
12370;DHT22;6249;52.128;9.986;2022-12-18T23:13:59;1.80;99.50
12370;DHT22;6249;52.128;9.986;2022-12-18T23:17:20;1.90;99.10
12370;DHT22;6249;52.128;9.986;2022-12-18T23:20:45;1.90;99.10
12370;DHT22;6249;52.128;9.986;2022-12-18T23:24:06;1.80;99.30
12370;DHT22;6249;52.128;9.986;2022-12-18T23:27:27;1.80;99.50
12370;DHT22;6249;52.128;9.986;2022-12-18T23:30:50;1.80;99.80
12370;DHT22;6249;52.128;9.986;2022-12-18T23:34:11;1.70;99.90
12370;DHT22;6249;52.128;9.986;2022-12-18T23:37:35;1.60;99.90
12370;DHT22;6249;52.128;9.986;2022-12-18T23:40:56;1.70;99.90
12370;DHT22;6249;52.128;9.986;2022-12-18T23:44:16;1.60;99.90
12370;DHT22;6249;52.128;9.986;2022-12-18T23:47:37;1.60;99.90
12370;DHT22;6249;52.128;9.986;2022-12-18T23:51:04;1.50;99.90
12370;DHT22;6249;52.128;9.986;2022-12-18T23:54:24;1.70;99.90